Time;durP1;ratioP1;P1;durP2;ratioP2;P2;SDS_P1;SDS_P2;PMS_P1;PMS_P2;Temp;Humidity;BMP_temperature;BMP_pressure;BME280_temperature;BME280_humidity;BME280_pressure;Samples;Min_cycle;Max_cycle;Signal;HPM_P1;HPM_P2
2022/11/10 00:00:41;;;;;;;47.20;24.23;;;13.00;87.50;;;;;;5084388;28;20239;-82
2022/11/10 00:03:10;;;;;;;47.17;23.17;;;13.00;87.50;;;;;;5089346;28;20233;-85
2022/11/10 00:05:39;;;;;;;52.30;24.63;;;13.00;87.50;;;;;;5084934;28;20270;-84
2022/11/10 00:08:12;;;;;;;48.83;23.40;;;13.00;87.40;;;;;;5085383;28;20263;-84
2022/11/10 00:13:24;;;;;;;61.93;26.07;;;13.10;87.30;;;;;;5085159;28;20255;-85
2022/11/10 00:18:39;;;;;;;52.53;24.67;;;13.00;87.20;;;;;;5084052;28;20298;-85
2022/11/10 00:21:10;;;;;;;52.27;24.33;;;13.00;87.10;;;;;;5090880;28;20289;-85
2022/11/10 00:23:40;;;;;;;46.70;23.60;;;12.90;87.00;;;;;;5086330;28;20247;-85
2022/11/10 00:26:14;;;;;;;47.77;24.30;;;12.90;86.90;;;;;;5086783;28;20194;-84
2022/11/10 00:28:42;;;;;;;56.55;26.67;;;12.90;86.90;;;;;;5086896;28;20479;-85
2022/11/10 00:31:11;;;;;;;54.70;26.33;;;12.90;86.90;;;;;;5088940;28;20771;-85
2022/11/10 00:33:41;;;;;;;51.47;26.00;;;12.90;87.00;;;;;;5095641;28;20240;-85
2022/11/10 00:36:10;;;;;;;53.57;26.00;;;12.90;87.00;;;;;;5093660;28;20194;-85
2022/11/10 00:38:40;;;;;;;55.43;28.27;;;12.90;86.90;;;;;;5091335;28;20216;-83
2022/11/10 00:41:08;;;;;;;56.50;26.80;;;12.90;87.00;;;;;;5095944;28;20196;-85
2022/11/10 00:43:36;;;;;;;60.90;26.47;;;12.80;86.90;;;;;;5090444;28;20206;-85
2022/11/10 00:46:05;;;;;;;53.30;26.17;;;12.80;87.00;;;;;;5091126;28;20243;-82
2022/11/10 00:48:33;;;;;;;64.10;25.97;;;12.80;87.00;;;;;;5092101;28;20221;-85
2022/11/10 00:51:01;;;;;;;54.50;25.17;;;12.80;87.10;;;;;;5093961;28;20193;-83
2022/11/10 00:53:30;;;;;;;53.83;26.33;;;12.80;87.10;;;;;;5092206;28;20193;-86
2022/11/10 00:55:59;;;;;;;52.33;25.97;;;12.70;87.10;;;;;;5090511;28;20209;-85
2022/11/10 00:58:28;;;;;;;48.97;25.03;;;12.70;87.10;;;;;;5094005;28;20199;-83
2022/11/10 01:01:01;;;;;;;59.13;28.20;;;12.70;87.10;;;;;;5085512;28;20629;-82
2022/11/10 01:03:30;;;;;;;58.37;26.03;;;12.70;87.40;;;;;;5091719;28;20201;-85
2022/11/10 01:05:59;;;;;;;56.70;25.73;;;12.60;87.50;;;;;;5088433;28;20236;-84
2022/11/10 01:08:27;;;;;;;54.70;26.90;;;12.60;87.70;;;;;;5092005;28;20766;-84
2022/11/10 01:11:03;;;;;;;56.03;27.70;;;12.60;87.70;;;;;;5091512;28;20264;-85
2022/11/10 01:13:31;;;;;;;55.10;27.23;;;12.50;87.90;;;;;;5091995;28;20949;-85
2022/11/10 01:16:04;;;;;;;58.10;28.53;;;12.50;87.90;;;;;;5089560;28;20247;-85
2022/11/10 01:18:32;;;;;;;52.67;26.00;;;12.50;88.00;;;;;;5090349;28;20634;-84
2022/11/10 01:21:01;;;;;;;58.57;27.40;;;12.50;88.00;;;;;;5088949;28;20246;-85
2022/11/10 01:23:31;;;;;;;62.97;28.40;;;12.50;88.00;;;;;;5090022;28;20209;-84
2022/11/10 01:26:00;;;;;;;55.83;28.57;;;12.40;88.10;;;;;;5088637;28;20254;-84
2022/11/10 01:28:31;;;;;;;57.97;27.63;;;12.40;88.10;;;;;;5085731;28;20226;-85
2022/11/10 01:31:00;;;;;;;53.87;28.30;;;12.40;88.30;;;;;;5087260;28;20233;-86
2022/11/10 01:33:29;;;;;;;56.90;28.13;;;12.40;88.30;;;;;;5089739;28;20263;-84
2022/11/10 01:35:57;;;;;;;61.50;28.17;;;12.40;88.40;;;;;;5091869;28;20237;-84
2022/11/10 01:38:28;;;;;;;53.83;26.13;;;12.40;88.70;;;;;;5086822;28;20199;-80
2022/11/10 01:40:56;;;;;;;51.30;26.83;;;12.40;88.60;;;;;;5088261;28;20193;-80
2022/11/10 01:43:25;;;;;;;54.30;27.63;;;12.30;88.60;;;;;;5086566;28;20227;-83
2022/11/10 01:45:56;;;;;;;55.90;27.87;;;12.30;89.40;;;;;;5085188;28;20194;-81
2022/11/10 01:48:30;;;;;;;55.27;26.37;;;12.30;88.60;;;;;;5090472;28;20270;-84
2022/11/10 01:51:01;;;;;;;52.73;27.07;;;12.30;88.50;;;;;;5090064;28;20221;-84
2022/11/10 01:53:32;;;;;;;49.20;26.17;;;12.30;88.60;;;;;;5091292;28;20255;-80
2022/11/10 01:56:01;;;;;;;54.47;27.07;;;12.30;88.60;;;;;;5090156;28;20314;-84
2022/11/10 01:58:38;;;;;;;56.47;26.77;;;12.30;88.60;;;;;;5088121;28;20189;-84
2022/11/10 02:01:08;;;;;;;56.27;28.33;;;12.30;88.60;;;;;;5091365;28;20823;-83
2022/11/10 02:03:43;;;;;;;58.47;26.87;;;12.20;88.60;;;;;;5090659;28;20198;-84
2022/11/10 02:06:13;;;;;;;56.00;26.93;;;12.20;88.70;;;;;;5084436;28;20592;-83
2022/11/10 02:08:43;;;;;;;57.70;26.43;;;12.20;88.60;;;;;;5088349;28;20255;-82
2022/11/10 02:11:12;;;;;;;55.43;27.07;;;12.20;88.50;;;;;;5088020;28;20297;-83
2022/11/10 02:13:40;;;;;;;53.63;26.43;;;12.20;88.50;;;;;;5093711;28;20284;-83
2022/11/10 02:16:11;;;;;;;61.73;26.37;;;12.20;88.50;;;;;;5083206;28;20221;-82
2022/11/10 02:18:39;;;;;;;55.97;27.03;;;12.20;88.40;;;;;;5089917;28;20681;-84
2022/11/10 02:21:10;;;;;;;50.50;25.50;;;12.20;88.50;;;;;;5088107;28;20202;-84
2022/11/10 02:23:45;;;;;;;50.93;26.23;;;12.10;88.40;;;;;;5092118;28;20190;-83
2022/11/10 02:26:15;;;;;;;51.37;26.33;;;12.10;88.60;;;;;;5100119;28;20181;-83
2022/11/10 02:28:44;;;;;;;58.17;27.57;;;12.10;88.60;;;;;;5083941;28;20195;-83
2022/11/10 02:31:12;;;;;;;51.07;27.73;;;12.00;88.50;;;;;;5088177;28;20233;-83
2022/11/10 02:33:41;;;;;;;59.20;27.47;;;12.00;88.60;;;;;;5093760;28;20327;-83
2022/11/10 02:36:11;;;;;;;52.87;26.30;;;11.90;88.60;;;;;;5088745;28;20654;-84
2022/11/10 02:38:39;;;;;;;53.23;27.07;;;11.90;88.60;;;;;;5087770;28;20250;-83
2022/11/10 02:41:08;;;;;;;53.07;25.70;;;11.90;88.60;;;;;;5092619;28;20194;-84
2022/11/10 02:43:38;;;;;;;50.20;26.20;;;11.90;88.60;;;;;;5088268;28;20229;-82
2022/11/10 02:46:06;;;;;;;50.17;24.50;;;11.90;88.70;;;;;;5088464;28;20197;-84
2022/11/10 02:48:35;;;;;;;48.53;24.83;;;11.90;88.70;;;;;;5087970;28;20251;-83
2022/11/10 02:51:03;;;;;;;56.17;25.80;;;11.80;88.60;;;;;;5089275;28;20670;-83
2022/11/10 02:53:33;;;;;;;50.00;24.90;;;11.80;89.50;;;;;;5097255;27;20254;-84
2022/11/10 02:56:01;;;;;;;49.40;23.57;;;11.80;88.80;;;;;;5090717;28;20225;-84
2022/11/10 02:58:29;;;;;;;48.70;24.47;;;11.80;88.80;;;;;;5090039;28;20209;-83
2022/11/10 03:00:57;;;;;;;58.67;25.00;;;11.80;88.80;;;;;;5086114;28;20281;-83
2022/11/10 03:03:26;;;;;;;46.63;25.13;;;11.80;88.80;;;;;;5087667;28;20194;-83
2022/11/10 03:05:54;;;;;;;54.40;25.80;;;11.80;88.80;;;;;;5089546;28;20194;-83
2022/11/10 03:08:22;;;;;;;47.47;24.00;;;11.80;88.80;;;;;;5089041;28;20251;-84
2022/11/10 03:10:55;;;;;;;48.30;24.83;;;11.70;88.70;;;;;;5087199;28;20241;-84
2022/11/10 03:13:24;;;;;;;49.10;24.73;;;11.70;88.70;;;;;;5090263;28;20193;-81
2022/11/10 03:16:07;;;;;;;50.33;26.37;;;11.70;88.70;;;;;;5091180;28;20498;-84
2022/11/10 03:18:36;;;;;;;56.27;26.17;;;11.70;88.60;;;;;;5088978;28;20201;-83
2022/11/10 03:21:04;;;;;;;53.70;25.27;;;11.70;88.60;;;;;;5087054;28;20225;-83
2022/11/10 03:23:33;;;;;;;46.50;23.53;;;11.60;88.60;;;;;;5090118;28;20233;-84
2022/11/10 03:26:05;;;;;;;53.77;25.23;;;11.60;88.60;;;;;;5090500;28;20194;-83
2022/11/10 03:28:34;;;;;;;46.33;24.03;;;11.60;88.60;;;;;;5087731;28;20193;-83
2022/11/10 03:31:02;;;;;;;49.47;24.17;;;11.60;88.60;;;;;;5091815;28;20274;-83
2022/11/10 03:33:30;;;;;;;52.77;25.13;;;11.60;88.60;;;;;;5088820;28;20337;-83
2022/11/10 03:35:59;;;;;;;47.40;23.00;;;11.60;88.60;;;;;;5089861;28;20212;-83
2022/11/10 03:38:27;;;;;;;47.90;23.50;;;11.50;88.40;;;;;;5083530;28;20746;-83
2022/11/10 03:40:55;;;;;;;46.00;23.57;;;11.60;88.60;;;;;;5087272;28;20225;-83
2022/11/10 03:43:45;;;;;;;48.77;25.07;;;11.50;88.50;;;;;;5086619;28;20285;-82
2022/11/10 03:46:13;;;;;;;49.70;27.05;;;11.50;88.40;;;;;;5084815;28;20473;-83
2022/11/10 03:48:41;;;;;;;53.90;25.73;;;11.50;88.80;;;;;;5084477;28;20294;-83
2022/11/10 03:51:11;;;;;;;46.50;24.27;;;11.50;88.80;;;;;;5086477;28;20274;-83
2022/11/10 03:53:39;;;;;;;49.40;25.53;;;11.50;88.80;;;;;;5089955;28;20288;-82
2022/11/10 03:56:08;;;;;;;48.83;25.93;;;11.50;88.80;;;;;;5084885;28;20198;-83
2022/11/10 03:58:36;;;;;;;54.22;27.33;;;11.50;88.70;;;;;;5086596;28;20457;-84
2022/11/10 04:01:06;;;;;;;50.97;25.77;;;11.50;88.80;;;;;;5075432;28;20249;-84
2022/11/10 04:03:34;;;;;;;54.80;25.27;;;11.40;88.80;;;;;;5074615;28;20251;-83
2022/11/10 04:08:59;;;;;;;50.77;25.17;;;11.40;89.00;;;;;;5070792;28;20556;-84
2022/11/10 04:17:01;;;;;;;49.73;25.50;;;11.40;88.90;;;;;;5069692;28;20249;-82
2022/11/10 04:19:29;;;;;;;48.70;25.77;;;11.40;88.90;;;;;;5078531;28;20231;-83
2022/11/10 04:21:58;;;;;;;51.87;25.10;;;11.40;88.80;;;;;;5071629;28;20193;-83
2022/11/10 04:24:26;;;;;;;53.67;29.07;;;11.30;88.70;;;;;;5066491;28;20467;-83
2022/11/10 04:26:54;;;;;;;49.20;24.67;;;11.30;89.40;;;;;;5073237;28;20853;-80
2022/11/10 04:29:22;;;;;;;50.90;25.00;;;11.30;89.30;;;;;;5072002;28;20570;-83
2022/11/10 04:31:51;;;;;;;47.33;24.77;;;11.40;89.30;;;;;;5073187;28;20252;-82
2022/11/10 04:34:20;;;;;;;50.67;24.93;;;11.40;90.00;;;;;;5073286;28;20255;-82
2022/11/10 04:36:48;;;;;;;54.65;28.92;;;11.40;89.00;;;;;;5065863;28;20428;-82
2022/11/10 04:39:17;;;;;;;51.07;25.67;;;11.40;89.60;;;;;;5076503;28;20198;-83
2022/11/10 04:41:46;;;;;;;55.27;24.80;;;11.30;89.40;;;;;;5071089;28;20214;-83
2022/11/10 04:44:14;;;;;;;55.27;25.90;;;11.30;89.40;;;;;;5078198;28;20195;-82
2022/11/10 04:46:43;;;;;;;49.10;25.17;;;11.30;89.20;;;;;;5067697;28;20191;-82
2022/11/10 04:49:11;;;;;;;53.87;24.17;;;11.30;89.20;;;;;;5077891;28;20195;-83
2022/11/10 04:51:41;;;;;;;48.10;24.40;;;11.30;89.00;;;;;;5076061;28;20770;-83
2022/11/10 04:54:11;;;;;;;43.90;23.10;;;11.30;89.00;;;;;;5075172;28;20285;-83
2022/11/10 04:56:40;;;;;;;51.07;24.93;;;11.30;89.00;;;;;;5070414;28;20198;-83
2022/11/10 04:59:08;;;;;;;51.73;24.83;;;11.30;89.00;;;;;;5068573;28;20283;-82
2022/11/10 05:01:36;;;;;;;53.63;28.38;;;11.30;88.90;;;;;;5070979;28;20916;-83
2022/11/10 05:04:05;;;;;;;52.90;25.87;;;11.30;89.60;;;;;;5069161;28;20651;-83
2022/11/10 05:06:33;;;;;;;41.97;23.93;;;11.30;89.40;;;;;;5069660;28;20194;-83
2022/11/10 05:09:03;;;;;;;49.20;24.37;;;11.30;89.30;;;;;;5071036;28;20218;-84
2022/11/10 05:11:31;;;;;;;49.07;23.07;;;11.30;89.20;;;;;;5073911;28;20295;-84
2022/11/10 05:13:59;;;;;;;49.10;23.50;;;11.30;89.10;;;;;;5068097;28;20210;-81
2022/11/10 05:16:28;;;;;;;50.50;24.53;;;11.30;89.00;;;;;;5067214;28;20623;-83
2022/11/10 05:18:57;;;;;;;49.70;23.80;;;11.30;88.90;;;;;;5068575;28;20252;-84
2022/11/10 05:21:25;;;;;;;41.27;21.97;;;11.30;88.80;;;;;;5075123;28;20198;-83
2022/11/10 05:23:53;;;;;;;48.90;24.60;;;11.30;88.80;;;;;;5072279;28;20194;-84
2022/11/10 05:26:23;;;;;;;44.37;22.90;;;11.30;88.70;;;;;;5074239;28;20194;-83
2022/11/10 05:28:51;;;;;;;46.53;23.00;;;11.30;88.70;;;;;;5068988;28;20236;-84
2022/11/10 05:31:19;;;;;;;51.17;24.50;;;11.30;88.70;;;;;;5076355;28;20226;-81
2022/11/10 05:33:48;;;;;;;44.40;23.77;;;11.30;88.70;;;;;;5072660;28;20233;-83
2022/11/10 05:36:16;;;;;;;48.13;24.13;;;11.30;88.70;;;;;;5073850;28;20271;-84
2022/11/10 05:38:44;;;;;;;45.17;24.00;;;11.30;88.70;;;;;;5071244;28;20283;-84
2022/11/10 05:41:12;;;;;;;48.03;24.87;;;11.40;88.70;;;;;;5070180;28;20209;-83
2022/11/10 05:43:42;;;;;;;44.17;22.97;;;11.30;88.70;;;;;;5068346;28;20229;-84
2022/11/10 05:46:10;;;;;;;47.80;23.37;;;11.40;88.70;;;;;;5072547;28;20647;-82
2022/11/10 05:48:38;;;;;;;43.97;22.57;;;11.40;88.80;;;;;;5070296;28;20234;-83
2022/11/10 05:51:07;;;;;;;43.03;22.20;;;11.40;88.80;;;;;;5073266;28;20253;-84
2022/11/10 05:53:35;;;;;;;42.50;23.00;;;11.40;89.00;;;;;;5077448;28;20228;-80
2022/11/10 05:56:03;;;;;;;42.10;22.27;;;11.40;89.00;;;;;;5073418;28;20248;-83
2022/11/10 05:58:32;;;;;;;42.17;22.80;;;11.40;89.30;;;;;;5073028;28;20210;-85
2022/11/10 06:01:01;;;;;;;47.27;23.10;;;11.40;89.30;;;;;;5071764;28;20245;-82
2022/11/10 06:03:30;;;;;;;43.13;22.87;;;11.40;89.40;;;;;;5075287;28;20250;-82
2022/11/10 06:05:58;;;;;;;48.80;22.17;;;11.40;89.70;;;;;;5076952;28;20195;-85
2022/11/10 06:08:26;;;;;;;46.57;23.37;;;11.30;90.00;;;;;;5076171;28;20605;-83
2022/11/10 06:10:54;;;;;;;38.50;21.60;;;11.40;89.90;;;;;;5077130;28;20198;-84
2022/11/10 06:13:23;;;;;;;53.07;23.13;;;11.40;90.00;;;;;;5080637;28;20207;-85
2022/11/10 06:15:51;;;;;;;47.57;24.13;;;11.40;90.00;;;;;;5073557;28;20720;-85
2022/11/10 06:18:21;;;;;;;45.10;22.57;;;11.40;90.00;;;;;;5074905;28;20221;-82
2022/11/10 06:20:49;;;;;;;38.23;22.27;;;11.40;90.00;;;;;;5071069;28;20202;-81
2022/11/10 06:23:18;;;;;;;47.10;22.73;;;11.40;90.00;;;;;;5069450;28;20203;-85
2022/11/10 06:25:46;;;;;;;44.00;23.93;;;11.40;90.10;;;;;;5068891;28;20194;-85
2022/11/10 06:28:16;;;;;;;39.83;22.90;;;11.40;90.30;;;;;;5075505;28;20198;-81
2022/11/10 06:30:44;;;;;;;47.10;23.67;;;11.40;90.30;;;;;;5075805;28;20197;-85
2022/11/10 06:33:12;;;;;;;46.37;23.40;;;11.40;90.30;;;;;;5071892;28;20263;-84
2022/11/10 06:35:42;;;;;;;43.40;22.60;;;11.50;90.30;;;;;;5072882;28;20687;-81
2022/11/10 06:38:11;;;;;;;42.33;23.43;;;11.50;90.30;;;;;;5069386;28;20199;-83
2022/11/10 06:40:39;;;;;;;49.27;22.33;;;11.50;90.40;;;;;;5069300;28;20549;-82
2022/11/10 06:43:08;;;;;;;46.10;22.77;;;11.60;90.30;;;;;;5074430;28;20195;-83
2022/11/10 06:45:36;;;;;;;45.43;24.03;;;11.60;90.40;;;;;;5076832;28;20300;-81
2022/11/10 06:48:07;;;;;;;53.17;24.47;;;11.60;90.40;;;;;;5064544;28;20199;-82
2022/11/10 06:50:35;;;;;;;44.63;22.50;;;11.70;90.40;;;;;;5065073;28;20228;-82
2022/11/10 06:53:05;;;;;;;42.70;21.97;;;11.80;90.50;;;;;;5062219;28;20261;-84
2022/11/10 06:55:34;;;;;;;45.13;22.90;;;11.80;90.50;;;;;;5067550;28;20213;-82
2022/11/10 06:58:02;;;;;;;46.72;25.30;;;11.90;90.50;;;;;;5067978;28;20887;-82
2022/11/10 07:00:30;;;;;;;37.97;21.13;;;11.90;90.80;;;;;;5064630;28;20262;-82
2022/11/10 07:03:00;;;;;;;39.87;22.20;;;11.90;90.80;;;;;;5069513;28;20251;-83
2022/11/10 07:05:29;;;;;;;40.13;21.13;;;12.00;90.80;;;;;;5071507;28;20271;-84
2022/11/10 07:08:02;;;;;;;45.08;23.60;;;12.00;90.80;;;;;;5069852;28;20439;-80
2022/11/10 07:10:32;;;;;;;40.77;21.70;;;12.10;91.20;;;;;;5066938;28;20935;-81
2022/11/10 07:13:01;;;;;;;51.83;22.03;;;12.10;90.70;;;;;;5065316;28;20616;-81
2022/11/10 07:15:30;;;;;;;46.57;22.30;;;12.20;91.10;;;;;;5070349;28;20206;-81
2022/11/10 07:17:58;;;;;;;39.00;21.50;;;12.30;90.70;;;;;;5070854;28;20202;-82
2022/11/10 07:20:27;;;;;;;57.40;23.73;;;12.30;90.70;;;;;;5062580;28;20728;-81
2022/11/10 07:22:59;;;;;;;40.37;20.80;;;12.40;90.70;;;;;;5078359;28;20193;-80
2022/11/10 07:25:29;;;;;;;41.67;21.83;;;12.50;90.70;;;;;;5069848;28;20611;-81
2022/11/10 07:28:00;;;;;;;39.07;21.50;;;12.50;90.70;;;;;;5068385;28;20198;-81
2022/11/10 07:30:30;;;;;;;41.23;21.57;;;12.60;90.70;;;;;;5070800;28;20198;-79
2022/11/10 07:33:03;;;;;;;39.23;20.37;;;12.70;90.60;;;;;;5066701;28;20240;-79
2022/11/10 07:35:32;;;;;;;41.03;20.93;;;12.80;90.70;;;;;;5068889;28;21367;-79
2022/11/10 07:38:03;;;;;;;39.47;19.93;;;12.80;90.60;;;;;;5069088;28;20202;-81
2022/11/10 07:40:32;;;;;;;44.87;21.97;;;12.90;90.60;;;;;;5068688;28;20623;-78
2022/11/10 07:43:02;;;;;;;34.53;20.33;;;13.00;90.60;;;;;;5069860;28;20275;-78
2022/11/10 07:45:31;;;;;;;42.57;21.13;;;13.10;90.70;;;;;;5067731;28;20236;-79
2022/11/10 07:48:00;;;;;;;40.13;22.10;;;13.10;90.60;;;;;;5068398;28;20191;-79
2022/11/10 07:50:29;;;;;;;45.20;22.17;;;13.20;90.70;;;;;;5067801;28;20667;-80
2022/11/10 07:53:04;;;;;;;43.93;23.17;;;13.20;90.60;;;;;;5068066;28;20314;-79
2022/11/10 07:55:32;;;;;;;40.57;21.40;;;13.30;90.60;;;;;;5068666;28;20198;-79
2022/11/10 07:58:02;;;;;;;43.33;21.47;;;13.40;90.60;;;;;;5072447;28;20198;-80
2022/11/10 08:00:30;;;;;;;41.40;23.63;;;13.50;90.60;;;;;;5066361;28;20229;-79
2022/11/10 08:03:03;;;;;;;44.00;22.27;;;13.50;90.50;;;;;;5070963;28;20470;-82
2022/11/10 08:05:32;;;;;;;41.97;22.27;;;13.60;90.50;;;;;;5067731;28;20245;-81
2022/11/10 08:08:01;;;;;;;38.30;21.07;;;13.70;90.50;;;;;;5073280;28;20195;-83
2022/11/10 08:10:30;;;;;;;43.20;21.30;;;13.70;90.50;;;;;;5073957;28;20261;-82
2022/11/10 08:13:02;;;;;;;41.27;22.43;;;13.80;90.40;;;;;;5069928;28;20218;-82
2022/11/10 08:15:31;;;;;;;40.07;22.40;;;13.90;90.40;;;;;;5071770;28;20198;-82
2022/11/10 08:18:00;;;;;;;40.13;22.07;;;14.00;90.40;;;;;;5068542;28;20229;-82
2022/11/10 08:20:28;;;;;;;38.93;21.03;;;14.00;90.40;;;;;;5068843;28;20210;-80
2022/11/10 08:22:58;;;;;;;36.37;19.80;;;14.10;90.40;;;;;;5061797;28;20237;-81
2022/11/10 08:25:27;;;;;;;38.60;20.33;;;14.20;90.40;;;;;;5068117;28;20202;-82
2022/11/10 08:28:06;;;;;;;40.90;21.57;;;14.30;90.40;;;;;;5065239;28;20199;-82
2022/11/10 08:30:37;;;;;;;40.77;21.10;;;14.40;90.40;;;;;;5065818;28;20195;-79
2022/11/10 08:33:07;;;;;;;38.47;21.27;;;14.50;90.30;;;;;;5069960;28;20203;-80
2022/11/10 08:35:43;;;;;;;39.87;20.87;;;14.60;90.30;;;;;;5074312;28;20195;-76
2022/11/10 08:41:13;;;;;;;32.50;18.53;;;14.70;90.20;;;;;;5067009;28;20258;-80
2022/11/10 08:43:44;;;;;;;35.30;19.03;;;14.80;90.10;;;;;;5071954;28;20277;-80
2022/11/10 08:46:12;;;;;;;40.23;19.33;;;14.90;90.10;;;;;;5067545;28;20216;-81
2022/11/10 08:48:40;;;;;;;40.93;20.77;;;15.00;90.00;;;;;;5072236;28;20202;-80
2022/11/10 08:51:09;;;;;;;38.27;20.27;;;15.00;90.00;;;;;;5070414;28;20810;-80
2022/11/10 08:53:37;;;;;;;41.73;21.13;;;15.10;89.90;;;;;;5071915;28;20218;-81
2022/11/10 08:56:06;;;;;;;36.20;19.67;;;15.20;89.70;;;;;;5070403;28;20647;-81
2022/11/10 08:58:36;;;;;;;39.03;19.87;;;15.20;89.40;;;;;;5073896;28;20248;-80
2022/11/10 09:01:18;;;;;;;39.97;20.63;;;15.30;88.90;;;;;;5074996;28;20617;-80
2022/11/10 09:03:47;;;;;;;46.13;21.33;;;15.40;88.70;;;;;;5075046;28;20709;-79
2022/11/10 09:06:15;;;;;;;39.90;19.63;;;15.50;88.60;;;;;;5073986;28;20221;-81
2022/11/10 09:08:43;;;;;;;47.10;20.73;;;15.50;88.50;;;;;;5077613;28;20201;-80
2022/11/10 09:11:11;;;;;;;50.70;21.40;;;15.50;87.70;;;;;;5072901;28;20650;-80
2022/11/10 09:13:40;;;;;;;38.33;20.87;;;15.60;87.10;;;;;;5074132;28;20242;-81
2022/11/10 09:16:08;;;;;;;41.73;20.83;;;15.70;87.20;;;;;;5073123;28;20249;-81
2022/11/10 09:18:38;;;;;;;40.27;18.73;;;15.70;86.90;;;;;;5073329;28;20245;-81
2022/11/10 09:21:10;;;;;;;38.37;19.43;;;15.80;87.20;;;;;;5075061;28;20649;-80
2022/11/10 09:23:38;;;;;;;36.97;20.40;;;15.90;87.30;;;;;;5071924;28;20189;-80
2022/11/10 09:26:07;;;;;;;40.93;22.13;;;16.00;87.20;;;;;;5071659;28;20198;-81
2022/11/10 09:28:35;;;;;;;39.13;19.87;;;16.10;86.90;;;;;;5073376;28;20237;-81
2022/11/10 09:31:03;;;;;;;40.97;20.63;;;16.20;86.60;;;;;;5080440;28;20281;-81
2022/11/10 09:33:32;;;;;;;35.63;19.77;;;16.20;86.30;;;;;;5080087;28;20254;-80
2022/11/10 09:36:01;;;;;;;39.87;20.73;;;16.30;86.10;;;;;;5072211;28;20228;-80
2022/11/10 09:38:30;;;;;;;38.37;20.70;;;16.30;85.70;;;;;;5074548;28;20198;-82
2022/11/10 09:41:01;;;;;;;39.17;19.23;;;16.40;85.80;;;;;;5079864;28;20250;-81
2022/11/10 09:43:42;;;;;;;38.20;20.27;;;16.50;85.60;;;;;;5071514;28;20190;-79
2022/11/10 09:46:17;;;;;;;44.60;21.43;;;16.60;85.60;;;;;;5072927;28;20218;-79
2022/11/10 09:48:50;;;;;;;43.20;20.90;;;16.60;85.50;;;;;;5072710;28;20606;-81
2022/11/10 09:51:24;;;;;;;48.70;21.23;;;16.70;85.00;;;;;;5073964;28;20221;-79
2022/11/10 09:53:57;;;;;;;35.37;20.50;;;16.80;84.60;;;;;;5070877;28;20237;-80
2022/11/10 09:56:32;;;;;;;39.80;21.80;;;16.80;84.40;;;;;;5070034;28;20614;-82
2022/11/10 09:59:03;;;;;;;40.93;21.63;;;16.90;83.80;;;;;;5070028;28;20193;-80
2022/11/10 10:01:38;;;;;;;42.63;20.50;;;17.00;83.60;;;;;;5070105;28;20261;-79
2022/11/10 10:04:21;;;;;;;37.77;21.90;;;17.00;83.60;;;;;;5076852;28;20182;-80
2022/11/10 10:06:57;;;;;;;43.90;21.30;;;17.10;83.50;;;;;;5077211;28;20226;-80
2022/11/10 10:09:47;;;;;;;45.63;21.57;;;17.20;83.50;;;;;;5065716;28;20702;-79
2022/11/10 10:12:26;;;;;;;43.23;21.30;;;17.30;83.60;;;;;;5070180;28;20216;-80
2022/11/10 10:15:15;;;;;;;45.93;22.10;;;17.40;83.30;;;;;;5068108;28;20210;-79
2022/11/10 10:17:51;;;;;;;39.40;19.57;;;17.50;82.90;;;;;;5073156;28;20194;-79
2022/11/10 10:20:27;;;;;;;46.77;22.17;;;17.50;82.70;;;;;;5071329;28;20670;-78
2022/11/10 10:23:08;;;;;;;43.30;20.87;;;17.60;82.70;;;;;;5066276;28;20311;-79
2022/11/10 10:25:39;;;;;;;36.73;21.83;;;17.70;82.60;;;;;;5070835;28;20251;-78
2022/11/10 10:28:20;;;;;;;44.93;22.13;;;17.80;82.10;;;;;;5070304;28;20671;-79
2022/11/10 10:30:49;;;;;;;41.77;20.27;;;17.80;81.80;;;;;;5068508;28;20190;-79
2022/11/10 10:33:19;;;;;;;44.45;23.33;;;17.90;81.90;;;;;;5067220;28;20475;-78
2022/11/10 10:35:49;;;;;;;48.40;21.80;;;18.00;80.80;;;;;;5072312;28;20225;-79
2022/11/10 10:38:27;;;;;;;42.43;21.60;;;18.00;81.00;;;;;;5070093;28;20643;-77
2022/11/10 10:41:13;;;;;;;43.47;20.87;;;18.10;81.10;;;;;;5068140;28;20214;-79
2022/11/10 10:43:50;;;;;;;42.57;22.20;;;18.20;80.50;;;;;;5071931;28;20194;-77
2022/11/10 10:46:23;;;;;;;43.83;21.90;;;18.20;80.50;;;;;;5065010;28;20237;-78
2022/11/10 10:49:07;;;;;;;40.90;20.80;;;18.30;80.60;;;;;;5071957;28;20220;-78
2022/11/10 10:52:06;;;;;;;35.70;19.87;;;18.40;79.70;;;;;;5068886;28;20201;-79
2022/11/10 10:54:37;;;;;;;39.57;20.27;;;18.50;79.60;;;;;;5065341;28;20229;-80
2022/11/10 10:57:20;;;;;;;34.57;19.20;;;18.50;78.30;;;;;;5068241;28;20198;-80
2022/11/10 10:59:49;;;;;;;38.20;19.87;;;18.50;78.80;;;;;;5068562;28;20312;-80
2022/11/10 11:02:27;;;;;;;40.33;20.53;;;18.60;79.00;;;;;;5069320;28;20747;-80
2022/11/10 11:05:14;;;;;;;40.10;19.60;;;18.60;79.00;;;;;;5075095;28;20190;-80
2022/11/10 11:07:56;;;;;;;34.70;18.37;;;18.70;78.70;;;;;;5074018;28;20545;-80
2022/11/10 11:10:29;;;;;;;30.93;18.13;;;18.80;78.80;;;;;;5064873;28;20252;-80
2022/11/10 11:13:14;;;;;;;36.07;18.60;;;18.90;78.80;;;;;;5068616;28;20605;-80
2022/11/10 11:15:42;;;;;;;38.27;18.53;;;18.90;78.00;;;;;;5073081;28;20221;-80
2022/11/10 11:18:14;;;;;;;37.90;18.07;;;19.00;77.30;;;;;;5072079;28;20190;-79
2022/11/10 11:20:52;;;;;;;35.07;20.00;;;19.00;76.10;;;;;;5067722;28;20226;-78
2022/11/10 11:23:45;;;;;;;37.53;20.20;;;19.00;75.80;;;;;;5080110;28;20206;-77
2022/11/10 11:26:22;;;;;;;44.45;21.30;;;19.00;75.10;;;;;;5071495;28;20915;-77
2022/11/10 11:29:03;;;;;;;36.53;19.77;;;19.10;74.80;;;;;;5072171;28;20718;-81
2022/11/10 11:31:45;;;;;;;36.80;19.00;;;19.20;75.50;;;;;;5079125;28;20244;-80
2022/11/10 11:34:22;;;;;;;39.10;20.23;;;19.20;75.70;;;;;;5080697;28;20210;-81
2022/11/10 11:37:03;;;;;;;45.30;20.87;;;19.30;76.00;;;;;;5080429;28;20198;-81
2022/11/10 11:40:03;;;;;;;38.60;20.57;;;19.30;75.70;;;;;;5084398;28;20207;-80
2022/11/10 11:42:52;;;;;;;40.20;20.50;;;19.40;75.70;;;;;;5070522;28;20251;-78
2022/11/10 11:45:27;;;;;;;33.43;18.63;;;19.50;75.80;;;;;;5077103;28;20194;-80
2022/11/10 11:48:15;;;;;;;38.72;18.88;;;19.50;75.20;;;;;;5068303;28;20205;-80
2022/11/10 11:50:50;;;;;;;41.80;19.67;;;19.50;75.30;;;;;;5071667;28;20198;-80
2022/11/10 11:53:33;;;;;;;41.50;21.70;;;19.60;75.10;;;;;;5075437;28;20523;-79
2022/11/10 11:56:15;;;;;;;39.75;19.35;;;19.70;74.60;;;;;;5072079;28;20198;-79
2022/11/10 11:58:51;;;;;;;42.80;19.63;;;19.70;74.70;;;;;;5075922;28;20245;-80
2022/11/10 12:01:37;;;;;;;33.23;16.30;;;19.80;74.90;;;;;;5070712;28;20233;-79
2022/11/10 12:04:31;;;;;;;30.30;15.13;;;19.80;74.90;;;;;;5067911;28;20183;-79
2022/11/10 12:07:18;;;;;;;30.47;14.80;;;19.90;75.00;;;;;;5070674;28;20194;-80
2022/11/10 12:10:05;;;;;;;31.58;13.52;;;20.00;74.60;;;;;;5071367;28;20223;-84
2022/11/10 12:13:09;;;;;;;21.25;11.63;;;20.10;74.10;;;;;;5069647;28;20723;-82
2022/11/10 12:15:49;;;;;;;22.20;11.18;;;20.10;72.70;;;;;;5071259;28;20198;-80
2022/11/10 12:18:28;;;;;;;24.08;11.88;;;20.10;73.00;;;;;;5069149;28;20232;-81
2022/11/10 12:21:11;;;;;;;24.05;11.43;;;20.20;72.70;;;;;;5076169;28;20249;-81
2022/11/10 12:23:53;;;;;;;20.58;10.88;;;20.20;71.70;;;;;;5055775;28;20202;-80
2022/11/10 12:26:28;;;;;;;18.63;10.02;;;20.20;71.30;;;;;;5061337;28;20828;-79
2022/11/10 12:29:06;;;;;;;15.95;10.18;;;20.30;71.00;;;;;;5073119;28;20712;-80
2022/11/10 12:31:39;;;;;;;18.27;9.95;;;20.30;70.30;;;;;;5071742;28;20244;-79
2022/11/10 12:34:15;;;;;;;26.33;10.65;;;20.30;71.10;;;;;;5069426;28;20293;-84
2022/11/10 12:36:44;;;;;;;20.80;10.68;;;20.30;69.30;;;;;;5063854;28;20190;-81
2022/11/10 12:39:18;;;;;;;23.77;10.88;;;20.40;69.10;;;;;;5074804;28;20800;-80
2022/11/10 12:41:49;;;;;;;20.05;10.00;;;20.40;69.10;;;;;;5074810;28;20307;-80
2022/11/10 12:44:24;;;;;;;21.80;11.75;;;20.40;70.20;;;;;;5073918;28;20218;-81
2022/11/10 12:46:56;;;;;;;20.70;10.30;;;20.50;70.90;;;;;;5074489;28;20250;-81
2022/11/10 12:49:31;;;;;;;20.65;10.77;;;20.60;71.40;;;;;;5073175;28;20651;-81
2022/11/10 12:52:06;;;;;;;23.25;11.10;;;20.70;71.20;;;;;;5070220;28;20444;-81
2022/11/10 12:54:35;;;;;;;25.33;11.32;;;20.80;71.60;;;;;;5074463;28;20733;-81
2022/11/10 12:57:07;;;;;;;23.45;11.30;;;20.80;70.70;;;;;;5071835;28;20194;-82
2022/11/10 12:59:37;;;;;;;21.38;11.20;;;20.90;70.50;;;;;;5075038;28;20220;-80
2022/11/10 13:02:22;;;;;;;25.13;11.30;;;20.90;69.50;;;;;;5068461;28;20203;-81
2022/11/10 13:05:26;;;;;;;26.67;12.15;;;21.10;70.00;;;;;;5069912;28;20191;-81
2022/11/10 13:08:27;;;;;;;27.73;12.55;;;21.20;70.30;;;;;;5067198;28;20271;-80